Danway, Illinois
Current Conditions -  °F | °C
As of 4:35 PM on Tuesday 21 Oct 2014 (Local Time) from KC09 Reporting Station
Overcast Overcast  
Wind Chill: 53°   Ceiling: 4000
Heat Index: 53°   Visibility: 10mi
Dew Point: 42°   Wind: 5mph
Humidity: 65%   Direction: 40°NE
Pressure: 30.18"   Gusts: NA
Location:  41.3806°N, 88.682°W
Report Text: KC09 212135Z AUTO 04004KT 10SM OVC040 12/05 A3018 RMK AO2 T01160053
Loading
Personal Weather Stations






























Interactive Weather Map
Tropical Storm Tracking
New forecast layout! Learn more

10-Day Weather Forecast

Advertisements
Track Severe Weather on mobile